Time;durP1;ratioP1;P1;durP2;ratioP2;P2;SDS_P1;SDS_P2;PMS_P1;PMS_P2;Temp;Humidity;BMP_temperature;BMP_pressure;BME280_temperature;BME280_humidity;BME280_pressure;Samples;Min_cycle;Max_cycle;Signal;HPM_P1;HPM_P2
2021/07/11 00:01:42;;;;;;;7.53;5.32;;;;;;;23.44;41.12;99299.34;5053292;28;20470;-74
2021/07/11 00:04:08;;;;;;;5.65;4.68;;;;;;;23.88;41.37;99368.97;5053298;28;20105;-74
2021/07/11 00:06:36;;;;;;;12.90;5.88;;;;;;;23.55;41.28;99307.47;5053246;28;20082;-74
2021/07/11 00:09:04;;;;;;;5.13;4.60;;;;;;;23.60;41.50;99329.03;5053037;28;20032;-75
2021/07/11 00:11:30;;;;;;;9.43;4.93;;;;;;;23.90;41.52;99360.63;5053330;28;20103;-74
2021/07/11 00:13:55;;;;;;;6.60;5.57;;;;;;;23.61;41.43;99322.56;5053117;28;20111;-75
2021/07/11 00:16:20;;;;;;;7.00;5.32;;;;;;;23.90;41.43;99369.50;5053175;28;20017;-74
2021/07/11 00:18:46;;;;;;;6.30;5.47;;;;;;;23.91;41.44;99364.94;5052949;28;20063;-74
2021/07/11 00:21:11;;;;;;;7.53;5.38;;;;;;;23.85;41.68;99361.44;5051494;28;20056;-74
2021/07/11 00:23:37;;;;;;;9.27;5.10;;;;;;;23.42;41.56;99295.28;5052868;28;20493;-74
2021/07/11 00:26:03;;;;;;;7.78;5.20;;;;;;;23.43;41.64;99296.91;5052706;28;20083;-74
2021/07/11 00:28:28;;;;;;;7.38;5.35;;;;;;;23.76;41.88;99363.81;5052607;28;20033;-74
2021/07/11 00:30:54;;;;;;;6.93;5.45;;;;;;;23.38;41.93;99316.59;5052805;28;20025;-74
2021/07/11 00:33:19;;;;;;;6.43;5.78;;;;;;;23.64;42.13;99360.56;5052812;28;20402;-74
2021/07/11 00:35:45;;;;;;;6.43;5.78;;;;;;;23.62;42.18;99365.41;5052677;28;20025;-74
2021/07/11 00:38:10;;;;;;;8.68;6.07;;;;;;;23.54;42.35;99360.53;5052472;28;20536;-74
2021/07/11 00:40:36;;;;;;;7.28;6.22;;;;;;;23.41;42.38;99342.19;5052267;28;20027;-74
2021/07/11 00:43:01;;;;;;;7.97;5.60;;;;;;;23.18;42.51;99321.94;5052496;28;20029;-74
2021/07/11 00:45:26;;;;;;;13.10;6.80;;;;;;;23.44;42.70;99363.22;5052206;28;20105;-74
2021/07/11 00:47:52;;;;;;;10.05;6.32;;;;;;;22.92;42.78;99296.78;5052299;28;20031;-74
2021/07/11 00:50:18;;;;;;;7.60;6.20;;;;;;;23.29;43.08;99358.59;5052288;28;20028;-75
2021/07/11 00:52:44;;;;;;;7.35;5.95;;;;;;;23.05;43.11;99317.03;5052245;28;20029;-74
2021/07/11 00:55:10;;;;;;;6.70;5.97;;;;;;;23.33;42.97;99353.47;5052260;28;20095;-74
2021/07/11 00:57:36;;;;;;;7.82;6.28;;;;;;;23.33;43.06;99334.63;5051784;28;20039;-74
2021/07/11 01:00:06;;;;;;;7.45;6.18;;;;;;;23.34;43.09;99347.81;5052328;28;20017;-74
2021/07/11 01:02:38;;;;;;;11.40;6.55;;;;;;;22.96;43.10;99305.16;5052337;28;20052;-73
2021/07/11 01:05:08;;;;;;;9.07;6.60;;;;;;;23.26;43.26;99348.34;5052157;28;20086;-75
2021/07/11 01:07:42;;;;;;;6.78;6.13;;;;;;;23.20;43.79;99353.97;5052147;28;20025;-74
2021/07/11 01:10:26;;;;;;;8.13;6.57;;;;;;;23.13;43.69;99340.78;5052046;28;20029;-74
2021/07/11 01:12:54;;;;;;;10.82;6.93;;;;;;;23.11;43.51;99348.31;5051719;28;20035;-75
2021/07/11 01:15:22;;;;;;;8.55;6.53;;;;;;;22.71;43.68;99285.09;5051637;28;20044;-75
2021/07/11 01:17:50;;;;;;;7.00;6.30;;;;;;;22.99;43.78;99332.34;5052020;28;20044;-75
2021/07/11 01:20:28;;;;;;;7.47;6.70;;;;;;;23.02;43.91;99341.78;5051850;28;20107;-74
2021/07/11 01:22:56;;;;;;;9.05;7.32;;;;;;;22.66;44.05;99289.66;5052091;28;20108;-73
2021/07/11 01:25:48;;;;;;;8.70;6.65;;;;;;;22.91;44.37;99338.25;5051877;28;20406;-74
2021/07/11 01:28:17;;;;;;;9.05;7.10;;;;;;;22.55;44.17;99288.81;5051626;28;20060;-75
2021/07/11 01:30:44;;;;;;;8.13;7.25;;;;;;;22.52;44.37;99281.25;5051805;28;20041;-75
2021/07/11 01:33:11;;;;;;;9.07;6.75;;;;;;;22.56;44.28;99276.97;5050325;28;20029;-75
2021/07/11 01:35:38;;;;;;;8.38;6.47;;;;;;;22.93;44.33;99338.78;5051572;28;20033;-74
2021/07/11 01:38:05;;;;;;;7.72;6.45;;;;;;;22.74;44.44;99300.72;5051790;28;20025;-75
2021/07/11 01:40:32;;;;;;;9.95;6.93;;;;;;;23.01;44.22;99335.59;5051463;28;20087;-74
2021/07/11 01:42:59;;;;;;;9.60;7.15;;;;;;;22.82;44.21;99302.94;5051516;28;20452;-74
2021/07/11 01:45:24;;;;;;;8.35;6.57;;;;;;;23.01;44.22;99332.09;5050063;28;20032;-74
2021/07/11 01:47:51;;;;;;;7.18;6.50;;;;;;;23.01;44.18;99342.84;5051425;28;20021;-74
2021/07/11 01:50:17;;;;;;;10.07;7.95;;;;;;;22.96;44.47;99343.66;5051425;28;20028;-74
2021/07/11 01:52:44;;;;;;;7.68;6.88;;;;;;;22.71;44.47;99367.75;5051542;28;20021;-74
2021/07/11 01:55:11;;;;;;;13.57;7.68;;;;;;;22.95;44.50;99344.72;5051221;28;20056;-75
2021/07/11 01:57:37;;;;;;;7.82;7.03;;;;;;;22.70;44.53;99302.34;5051041;28;20082;-75
2021/07/11 02:00:08;;;;;;;11.57;7.45;;;;;;;22.71;45.03;99319.28;5051134;28;20028;-74
2021/07/11 02:02:33;;;;;;;8.20;7.13;;;;;;;22.77;44.85;99345.97;5051433;28;20029;-75
2021/07/11 02:05:04;;;;;;;8.50;7.47;;;;;;;22.80;44.89;99340.09;5051331;28;20020;-74
2021/07/11 02:07:29;;;;;;;8.32;7.00;;;;;;;22.61;44.74;99308.47;5051215;28;20458;-73
2021/07/11 02:09:55;;;;;;;10.98;7.43;;;;;;;22.55;44.81;99296.06;5050469;28;20024;-74
2021/07/11 02:12:22;;;;;;;10.63;7.35;;;;;;;22.81;44.89;99341.72;5051163;28;20486;-74
2021/07/11 02:14:48;;;;;;;7.38;6.68;;;;;;;22.61;44.97;99303.91;5051361;28;20114;-74
2021/07/11 02:17:18;;;;;;;10.93;7.68;;;;;;;22.95;44.92;99338.53;5051148;28;20025;-73
2021/07/11 02:19:46;;;;;;;8.23;6.90;;;;;;;22.99;44.56;99351.19;5051109;28;20021;-74
2021/07/11 02:22:12;;;;;;;8.52;7.53;;;;;;;23.04;44.48;99342.34;5049880;28;20025;-74
2021/07/11 02:24:39;;;;;;;9.25;7.03;;;;;;;23.07;44.19;99350.72;5051262;28;20105;-80
2021/07/11 02:27:07;;;;;;;10.40;6.75;;;;;;;22.65;44.35;99282.66;5050980;28;20413;-81
2021/07/11 02:29:39;;;;;;;9.95;7.43;;;;;;;23.03;44.31;99344.22;5051075;28;20095;-80
2021/07/11 02:32:08;;;;;;;11.05;6.90;;;;;;;22.90;44.56;99339.31;5051027;28;20490;-79
2021/07/11 02:34:34;;;;;;;7.68;6.63;;;;;;;22.69;44.56;99300.72;5049806;28;20092;-80
2021/07/11 02:37:01;;;;;;;7.72;7.00;;;;;;;22.94;44.59;99351.19;5051089;28;20498;-80
2021/07/11 02:39:27;;;;;;;9.05;7.47;;;;;;;22.69;44.77;99326.81;5050948;28;20506;-80
2021/07/11 02:42:00;;;;;;;11.00;7.65;;;;;;;22.79;44.87;99341.13;5049585;28;20107;-82
2021/07/11 02:44:26;;;;;;;12.40;7.13;;;;;;;22.56;44.84;99303.88;5050893;28;20021;-81
2021/07/11 02:47:02;;;;;;;10.13;7.22;;;;;;;22.64;44.85;99324.09;5050874;28;20025;-80
2021/07/11 02:49:31;;;;;;;11.05;7.13;;;;;;;22.86;44.75;99354.38;5050662;28;20540;-80
2021/07/11 02:51:59;;;;;;;8.68;7.18;;;;;;;22.88;44.77;99357.63;5050922;28;20480;-81
2021/07/11 02:54:27;;;;;;;8.15;7.32;;;;;;;22.89;44.70;99353.84;5050821;28;20569;-82
2021/07/11 02:57:00;;;;;;;12.18;7.47;;;;;;;22.88;44.98;99363.00;5050724;28;20105;-81
2021/07/11 02:59:26;;;;;;;9.73;7.68;;;;;;;22.88;44.75;99357.63;5049589;28;20386;-81
2021/07/11 03:01:52;;;;;;;10.80;6.75;;;;;;;22.74;44.59;99330.34;5050951;28;20028;-81
2021/07/11 03:04:20;;;;;;;8.73;7.10;;;;;;;22.89;44.38;99339.59;5050848;28;20017;-82
2021/07/11 03:06:46;;;;;;;12.52;8.50;;;;;;;22.74;44.34;99308.81;5050748;28;20079;-82
2021/07/11 03:09:11;;;;;;;14.93;9.50;;;;;;;23.11;44.38;99359.88;5049430;28;20025;-82
2021/07/11 03:11:39;;;;;;;9.55;8.40;;;;;;;22.68;44.54;99301.78;5050671;28;20032;-82
2021/07/11 03:14:07;;;;;;;12.85;8.57;;;;;;;23.07;44.46;99368.75;5050527;28;20383;-82
2021/07/11 03:16:33;;;;;;;11.52;8.85;;;;;;;22.98;44.61;99351.47;5050568;28;20021;-81
2021/07/11 03:19:00;;;;;;;12.60;8.18;;;;;;;22.61;44.71;99303.09;5050510;28;20493;-80
2021/07/11 03:21:28;;;;;;;11.38;8.57;;;;;;;22.76;44.79;99333.56;5050862;28;20532;-80
2021/07/11 03:23:55;;;;;;;12.20;8.48;;;;;;;22.29;44.71;99257.44;5054291;28;20078;-74
2021/07/11 03:26:22;;;;;;;11.10;8.13;;;;;;;22.91;44.83;99361.66;5054062;28;20051;-73
2021/07/11 03:28:49;;;;;;;13.07;7.93;;;;;;;23.00;44.93;99373.56;5054087;28;20489;-75
2021/07/11 03:31:15;;;;;;;9.57;7.50;;;;;;;23.04;44.82;99370.09;5053901;28;20028;-75
2021/07/11 03:33:45;;;;;;;9.25;7.95;;;;;;;22.98;44.81;99346.06;5053874;28;20108;-75
2021/07/11 03:36:15;;;;;;;8.82;7.82;;;;;;;22.86;44.80;99321.25;5052622;28;20059;-74
2021/07/11 03:38:46;;;;;;;11.52;8.80;;;;;;;23.07;44.69;99347.22;5053624;28;20523;-74
2021/07/11 03:41:17;;;;;;;11.10;7.70;;;;;;;23.23;44.64;99366.94;5053488;28;20048;-73
2021/07/11 03:43:49;;;;;;;10.00;7.68;;;;;;;23.01;44.46;99345.53;5053798;28;20039;-75
2021/07/11 03:46:16;;;;;;;9.73;7.93;;;;;;;23.23;44.44;99359.66;5053627;28;20021;-74
2021/07/11 03:48:52;;;;;;;8.82;7.13;;;;;;;23.34;44.47;99371.25;5053661;28;20031;-75
2021/07/11 03:51:23;;;;;;;7.65;6.88;;;;;;;23.32;44.19;99371.53;5053738;28;20082;-74
2021/07/11 03:53:52;;;;;;;;;;;;;;;23.08;44.61;99368.50;5054016;28;20021;-74
2021/07/11 03:56:18;;;;;;;8.40;7.53;;;;;;;23.14;44.42;99378.22;5053646;28;19913;-74
2021/07/11 03:58:45;;;;;;;9.65;8.40;;;;;;;23.20;44.46;99375.53;5053438;28;20529;-74
2021/07/11 04:01:13;;;;;;;8.15;7.35;;;;;;;23.13;44.51;99371.22;5053345;28;20409;-75
2021/07/11 04:03:41;;;;;;;9.57;7.60;;;;;;;23.14;44.58;99377.41;5053532;28;20024;-74
2021/07/11 04:06:13;;;;;;;9.13;7.90;;;;;;;23.18;44.74;99383.88;5053488;28;20021;-74
2021/07/11 04:08:40;;;;;;;10.05;7.43;;;;;;;23.26;44.48;99385.25;5053278;28;20413;-75
2021/07/11 04:11:07;;;;;;;10.73;7.07;;;;;;;22.75;44.27;99288.88;5053100;28;20405;-76
2021/07/11 04:13:34;;;;;;;11.88;7.75;;;;;;;23.39;44.22;99369.38;5051919;28;20036;-73
2021/07/11 04:16:03;;;;;;;10.05;7.32;;;;;;;23.25;44.10;99344.03;5053207;28;20020;-74
2021/07/11 04:18:30;;;;;;;8.60;6.88;;;;;;;23.44;43.96;99372.09;5053190;28;20525;-74
2021/07/11 04:20:58;;;;;;;9.45;6.88;;;;;;;23.35;43.61;99344.06;5051737;28;20025;-75
2021/07/11 04:23:30;;;;;;;10.65;6.45;;;;;;;23.59;43.66;99376.72;5052909;28;20043;-74
2021/07/11 04:25:56;;;;;;;10.02;6.70;;;;;;;23.63;43.45;99366.22;5052611;28;20021;-74
2021/07/11 04:28:23;;;;;;;9.75;6.15;;;;;;;23.52;43.00;99324.13;5052938;28;20104;-74
2021/07/11 04:30:49;;;;;;;8.52;5.60;;;;;;;23.76;42.92;99361.13;5051611;28;20056;-74
2021/07/11 04:33:14;;;;;;;9.05;5.78;;;;;;;23.42;42.81;99312.28;5052278;28;20489;-74
2021/07/11 04:35:41;;;;;;;8.32;5.80;;;;;;;23.54;42.79;99330.06;5052855;28;20017;-73
2021/07/11 04:38:06;;;;;;;8.23;5.50;;;;;;;23.63;42.53;99342.78;5052759;28;20510;-74
2021/07/11 04:40:32;;;;;;;7.93;5.47;;;;;;;23.98;42.55;99381.66;5051164;28;20047;-74
2021/07/11 04:42:57;;;;;;;7.32;5.35;;;;;;;23.97;42.49;99380.84;5053025;28;20032;-74
2021/07/11 04:45:23;;;;;;;7.20;5.80;;;;;;;24.02;42.60;99382.72;5052517;28;20021;-73
2021/07/11 04:47:48;;;;;;;6.07;5.18;;;;;;;24.07;42.62;99378.16;5052700;28;20572;-74
2021/07/11 04:50:14;;;;;;;8.55;5.68;;;;;;;24.12;42.51;99379.22;5052470;28;20027;-75
2021/07/11 04:52:41;;;;;;;9.40;6.10;;;;;;;24.26;42.37;99374.88;5052489;28;20021;-75
2021/07/11 04:55:09;;;;;;;7.82;5.05;;;;;;;24.28;42.34;99375.47;5052231;28;20101;-75
2021/07/11 04:57:35;;;;;;;7.45;5.47;;;;;;;24.03;42.32;99322.31;5052464;28;20107;-75
2021/07/11 05:00:01;;;;;;;9.55;5.00;;;;;;;24.37;42.10;99368.44;5052044;28;20035;-73
2021/07/11 05:02:26;;;;;;;6.68;5.38;;;;;;;24.57;41.52;99376.50;5052123;28;20028;-75
2021/07/11 05:04:52;;;;;;;7.28;5.93;;;;;;;24.60;41.29;99377.84;5052211;28;20473;-75
2021/07/11 05:07:18;;;;;;;9.10;4.97;;;;;;;24.67;41.32;99379.19;5052205;28;20017;-74
2021/07/11 05:09:43;;;;;;;6.05;5.32;;;;;;;24.31;40.83;99310.16;5052058;28;20512;-73
2021/07/11 05:12:09;;;;;;;5.93;5.18;;;;;;;24.57;40.68;99349.53;5050820;28;20028;-75
2021/07/11 05:14:34;;;;;;;8.15;5.00;;;;;;;24.77;40.53;99372.13;5051899;28;20079;-75
2021/07/11 05:17:00;;;;;;;7.28;5.15;;;;;;;24.49;40.73;99319.56;5051979;28;20021;-74
2021/07/11 05:19:25;;;;;;;7.78;4.90;;;;;;;24.79;40.37;99370.78;5052056;28;20033;-75
2021/07/11 05:21:50;;;;;;;11.30;5.70;;;;;;;24.90;40.53;99371.53;5051754;28;20382;-75
2021/07/11 05:24:16;;;;;;;6.60;5.00;;;;;;;25.00;40.43;99371.53;5051677;28;20135;-75
2021/07/11 05:26:42;;;;;;;8.07;5.07;;;;;;;25.01;40.50;99365.84;5051592;28;20023;-76
2021/07/11 05:29:08;;;;;;;5.68;4.45;;;;;;;25.02;40.33;99372.88;5051788;28;20502;-75
2021/07/11 05:31:33;;;;;;;7.18;5.68;;;;;;;25.01;40.23;99356.94;5051859;28;20024;-74
2021/07/11 05:33:58;;;;;;;5.40;4.90;;;;;;;25.16;39.88;99373.09;5051421;28;20107;-75
2021/07/11 05:36:24;;;;;;;5.97;4.55;;;;;;;25.25;39.85;99371.41;5051616;28;20024;-73
2021/07/11 05:38:49;;;;;;;7.15;5.75;;;;;;;25.30;40.17;99371.41;5050337;28;20452;-73
2021/07/11 05:41:15;;;;;;;5.97;4.90;;;;;;;24.93;39.92;99314.28;5051597;28;20037;-74
2021/07/11 05:43:40;;;;;;;6.85;5.80;;;;;;;25.30;39.80;99379.53;5050215;28;20029;-75
2021/07/11 05:46:05;;;;;;;5.88;5.25;;;;;;;25.36;40.15;99368.69;5051009;28;20017;-75
2021/07/11 05:48:31;;;;;;;6.05;4.80;;;;;;;25.23;39.97;99370.88;5051463;28;20603;-74
2021/07/11 05:50:57;;;;;;;10.07;4.90;;;;;;;25.26;39.78;99350.59;5051386;28;20035;-74
2021/07/11 05:53:22;;;;;;;6.40;5.28;;;;;;;25.34;39.75;99350.03;5051399;28;20067;-74
2021/07/11 05:55:48;;;;;;;7.13;4.85;;;;;;;25.26;39.71;99329.78;5051425;28;20082;-74
2021/07/11 05:58:14;;;;;;;6.00;4.90;;;;;;;25.56;39.67;99355.84;5051098;28;20029;-74
2021/07/11 06:00:39;;;;;;;8.35;5.13;;;;;;;25.36;39.59;99318.13;5051252;28;20024;-74
2021/07/11 06:03:05;;;;;;;6.03;4.68;;;;;;;25.80;39.58;99366.78;5051201;28;20013;-75
2021/07/11 06:05:30;;;;;;;5.85;5.13;;;;;;;25.83;39.29;99355.41;5051307;28;20555;-74
2021/07/11 06:07:55;;;;;;;7.15;5.13;;;;;;;25.91;39.44;99362.91;5051153;28;20060;-73
2021/07/11 06:10:21;;;;;;;6.95;5.07;;;;;;;25.96;39.63;99371.00;5051048;28;20171;-74
2021/07/11 06:12:46;;;;;;;6.20;5.20;;;;;;;25.73;39.71;99336.56;5051158;28;20390;-73
2021/07/11 06:15:14;;;;;;;7.00;5.55;;;;;;;25.92;39.59;99358.31;5049600;28;20021;-74
2021/07/11 06:17:39;;;;;;;7.43;4.72;;;;;;;26.06;39.65;99372.03;5049765;28;20017;-74
2021/07/11 06:20:10;;;;;;;8.30;5.18;;;;;;;25.71;39.67;99319.00;5050895;28;20017;-74
2021/07/11 06:22:36;;;;;;;10.30;5.57;;;;;;;26.06;39.59;99367.41;5050820;28;20555;-75
2021/07/11 06:25:07;;;;;;;9.43;5.35;;;;;;;26.02;39.79;99360.97;5051103;28;20021;-80
2021/07/11 06:27:37;;;;;;;8.48;5.43;;;;;;;26.06;39.87;99345.78;5051196;28;20021;-79
2021/07/11 06:30:05;;;;;;;6.30;5.30;;;;;;;26.26;39.92;99367.22;5051093;28;20031;-80
2021/07/11 06:32:31;;;;;;;6.72;5.43;;;;;;;26.16;39.70;99342.97;5050891;28;20039;-79
2021/07/11 06:34:57;;;;;;;7.80;5.68;;;;;;;26.40;39.74;99359.28;5051024;28;20028;-80
2021/07/11 06:37:22;;;;;;;8.18;6.10;;;;;;;26.49;39.49;99354.84;5050942;28;20147;-81
2021/07/11 06:39:47;;;;;;;5.93;5.32;;;;;;;26.58;39.51;99363.16;5051103;28;20405;-80
2021/07/11 06:42:13;;;;;;;8.35;5.68;;;;;;;26.67;39.11;99366.03;5051057;28;20035;-81
2021/07/11 06:44:38;;;;;;;11.18;6.20;;;;;;;26.65;39.21;99352.78;5051007;28;20024;-78
2021/07/11 06:47:04;;;;;;;6.97;5.30;;;;;;;26.64;39.36;99350.34;5051043;28;20029;-81
2021/07/11 06:49:29;;;;;;;9.73;5.65;;;;;;;26.70;39.05;99347.31;5051134;28;20021;-80
2021/07/11 06:51:55;;;;;;;7.22;5.55;;;;;;;26.84;39.09;99371.81;5050985;28;20570;-80
2021/07/11 06:54:20;;;;;;;9.43;6.53;;;;;;;26.86;38.97;99366.91;5051007;28;20032;-80
2021/07/11 06:56:45;;;;;;;5.85;5.30;;;;;;;26.82;38.98;99358.56;5053291;28;20020;-79
2021/07/11 06:59:11;;;;;;;6.75;5.88;;;;;;;26.70;39.17;99338.38;5054700;28;20092;-80
2021/07/11 07:01:37;;;;;;;9.27;6.35;;;;;;;26.59;38.65;99311.41;5054585;28;20485;-80
2021/07/11 07:04:02;;;;;;;7.32;6.07;;;;;;;27.03;38.88;99363.75;5054699;28;20052;-80
2021/07/11 07:06:28;;;;;;;8.30;6.13;;;;;;;27.10;38.77;99375.06;5054598;28;20029;-80
2021/07/11 07:08:53;;;;;;;7.50;5.93;;;;;;;27.11;38.70;99360.41;5054486;28;20025;-78
2021/07/11 07:11:18;;;;;;;7.63;5.97;;;;;;;26.66;38.55;99288.59;5054702;28;20425;-80
2021/07/11 07:13:44;;;;;;;6.95;5.75;;;;;;;27.25;38.42;99376.75;5054241;28;20025;-80
2021/07/11 07:16:09;;;;;;;8.55;6.35;;;;;;;26.95;38.62;99340.78;5054374;28;20078;-79
2021/07/11 07:18:34;;;;;;;8.38;5.68;;;;;;;27.23;38.65;99361.59;5054249;28;20493;-79
2021/07/11 07:21:00;;;;;;;11.50;6.60;;;;;;;27.09;38.34;99317.34;5054074;28;20017;-79
2021/07/11 07:23:25;;;;;;;7.38;5.70;;;;;;;27.47;38.15;99375.06;5054161;28;20178;-72
2021/07/11 07:25:51;;;;;;;8.88;5.80;;;;;;;27.45;38.01;99355.59;5053935;28;20017;-74
2021/07/11 07:28:16;;;;;;;7.20;5.70;;;;;;;27.37;38.22;99331.84;5053915;28;20028;-75
2021/07/11 07:30:41;;;;;;;8.93;6.38;;;;;;;27.72;37.55;99373.16;5053928;28;20604;-74
2021/07/11 07:33:09;;;;;;;8.98;5.65;;;;;;;27.50;37.62;99336.56;5053750;28;20017;-74
2021/07/11 07:35:34;;;;;;;9.75;5.65;;;;;;;27.79;37.24;99371.66;5053557;28;20021;-74
2021/07/11 07:38:00;;;;;;;7.03;5.10;;;;;;;27.87;37.17;99374.81;5053747;28;20510;-73
2021/07/11 07:40:25;;;;;;;7.00;5.03;;;;;;;27.93;37.02;99368.19;5053730;28;20021;-75
2021/07/11 07:42:50;;;;;;;8.68;5.13;;;;;;;27.97;36.92;99371.94;5053782;28;20029;-74
2021/07/11 07:45:17;;;;;;;6.68;5.30;;;;;;;28.00;36.68;99369.44;5053742;28;20017;-74
2021/07/11 07:47:42;;;;;;;9.10;5.28;;;;;;;28.09;36.64;99372.28;5053542;28;20099;-74
2021/07/11 07:50:12;;;;;;;5.85;5.18;;;;;;;28.22;36.83;99351.69;5053356;28;20100;-75
2021/07/11 07:52:39;;;;;;;6.88;5.05;;;;;;;28.28;36.41;99364.13;5053616;28;20025;-72
2021/07/11 07:55:06;;;;;;;8.77;5.38;;;;;;;28.31;36.07;99363.53;5053416;28;20029;-73
2021/07/11 07:57:31;;;;;;;8.48;5.20;;;;;;;28.04;36.09;99318.88;5053351;28;20029;-74
2021/07/11 07:59:57;;;;;;;6.85;4.88;;;;;;;28.20;35.88;99341.13;5053491;28;20062;-73
2021/07/11 08:02:23;;;;;;;6.95;5.07;;;;;;;28.28;35.74;99331.53;5053410;28;20545;-73
2021/07/11 08:04:48;;;;;;;8.40;5.32;;;;;;;28.60;35.34;99361.34;5053231;28;20020;-74
2021/07/11 08:07:14;;;;;;;7.00;5.32;;;;;;;28.64;35.40;99358.84;5051109;28;20556;-73
2021/07/11 08:09:39;;;;;;;7.38;5.25;;;;;;;28.68;35.21;99351.69;5053058;28;20017;-74
2021/07/11 08:12:05;;;;;;;6.85;5.07;;;;;;;28.86;35.40;99366.31;5053216;28;20020;-74
2021/07/11 08:14:31;;;;;;;7.43;5.13;;;;;;;28.90;34.91;99359.97;5053007;28;20056;-73
2021/07/11 08:16:56;;;;;;;11.90;5.03;;;;;;;28.98;35.08;99356.53;5051848;28;20501;-73
2021/07/11 08:19:22;;;;;;;11.60;5.68;;;;;;;29.00;34.63;99354.34;5053023;28;20398;-73
2021/07/11 08:21:48;;;;;;;7.90;5.60;;;;;;;28.80;34.73;99311.22;5051748;28;20063;-73
2021/07/11 08:24:13;;;;;;;5.82;5.13;;;;;;;28.93;34.72;99307.72;5053056;28;20021;-73
2021/07/11 08:26:39;;;;;;;10.88;5.15;;;;;;;28.95;34.63;99289.19;5052961;28;20100;-73
2021/07/11 08:29:04;;;;;;;6.93;5.53;;;;;;;29.40;34.23;99347.19;5052876;28;20035;-73
2021/07/11 08:31:29;;;;;;;6.95;5.32;;;;;;;29.07;34.35;99284.06;5052818;28;20108;-74
2021/07/11 08:33:55;;;;;;;6.45;5.13;;;;;;;29.55;34.39;99348.78;5052604;28;20029;-74
2021/07/11 08:36:21;;;;;;;7.07;5.50;;;;;;;29.53;34.03;99331.97;5051562;28;20520;-74
2021/07/11 08:38:46;;;;;;;10.25;5.07;;;;;;;29.76;33.90;99354.59;5052641;28;20036;-73
2021/07/11 08:41:15;;;;;;;6.80;5.40;;;;;;;29.89;33.67;99353.72;5052487;28;20082;-74
2021/07/11 08:43:40;;;;;;;21.67;5.90;;;;;;;29.99;33.91;99358.09;5052629;28;20024;-74
2021/07/11 08:46:06;;;;;;;6.78;5.43;;;;;;;29.84;33.44;99299.41;5052637;28;20386;-74
2021/07/11 08:48:32;;;;;;;6.45;5.40;;;;;;;30.21;33.57;99346.41;5052669;28;20105;-73
2021/07/11 08:51:03;;;;;;;7.22;5.45;;;;;;;30.17;32.89;99319.00;5052416;28;20507;-74
2021/07/11 08:53:33;;;;;;;8.98;5.82;;;;;;;30.24;33.06;99332.16;5051325;28;20028;-73
2021/07/11 08:56:03;;;;;;;6.05;5.35;;;;;;;30.41;32.77;99339.59;5052396;28;20383;-72
2021/07/11 08:58:29;;;;;;;9.95;6.40;;;;;;;30.52;33.12;99339.03;5052292;28;20021;-75
2021/07/11 09:00:54;;;;;;;7.40;5.68;;;;;;;30.46;32.39;99307.56;5052319;28;20064;-74
2021/07/11 09:03:20;;;;;;;9.77;7.05;;;;;;;30.84;32.07;99339.81;5051032;28;20056;-75
2021/07/11 09:05:45;;;;;;;10.23;9.20;;;;;;;30.87;32.15;99326.34;5052463;28;20485;-72
2021/07/11 09:08:12;;;;;;;8.15;6.47;;;;;;;30.98;31.85;99324.13;5052137;28;20025;-74
2021/07/11 09:10:40;;;;;;;6.68;6.10;;;;;;;31.19;31.59;99330.59;5050640;28;20017;-74
2021/07/11 09:13:15;;;;;;;10.35;6.80;;;;;;;31.35;30.88;99328.22;5051981;28;20524;-76
2021/07/11 09:15:50;;;;;;;6.93;6.20;;;;;;;31.37;30.96;99328.72;5051872;28;20405;-72
2021/07/11 09:18:29;;;;;;;6.32;5.72;;;;;;;31.46;30.65;99321.34;5051761;28;20032;-75
2021/07/11 09:20:57;;;;;;;7.45;5.93;;;;;;;31.58;30.78;99321.47;5051910;28;20404;-74
2021/07/11 09:23:24;;;;;;;7.43;6.35;;;;;;;31.47;30.80;99279.28;5051770;28;20082;-74
2021/07/11 09:26:03;;;;;;;7.95;7.20;;;;;;;31.77;30.63;99306.72;5051657;28;20013;-75
2021/07/11 09:28:30;;;;;;;6.70;6.00;;;;;;;31.81;30.42;99310.41;5051811;28;20482;-73
2021/07/11 09:31:09;;;;;;;8.55;6.22;;;;;;;31.89;30.39;99310.38;5051626;28;20021;-72
2021/07/11 09:33:37;;;;;;;7.88;6.18;;;;;;;31.34;30.73;99201.13;5051760;28;20021;-74
2021/07/11 09:36:23;;;;;;;12.10;6.45;;;;;;;32.17;30.25;99302.63;5051546;28;20017;-74
2021/07/11 09:38:58;;;;;;;7.28;6.38;;;;;;;32.22;30.11;99277.84;5051637;28;20497;-73
2021/07/11 09:41:28;;;;;;;9.40;7.60;;;;;;;32.11;30.18;99276.59;5051600;28;20047;-75
2021/07/11 09:43:56;;;;;;;10.55;7.95;;;;;;;32.36;30.45;99301.44;5050165;28;20024;-74
2021/07/11 09:46:23;;;;;;;7.20;6.18;;;;;;;32.40;30.08;99281.34;5051041;28;20029;-72
2021/07/11 09:48:50;;;;;;;7.97;7.30;;;;;;;32.72;30.22;99288.09;5051069;28;20020;-73
2021/07/11 09:51:25;;;;;;;8.13;6.00;;;;;;;32.90;29.90;99277.88;5051440;28;20413;-75
2021/07/11 09:53:51;;;;;;;9.52;6.82;;;;;;;32.91;29.48;99243.13;5048618;28;20045;-74
2021/07/11 09:56:38;;;;;;;7.20;6.38;;;;;;;33.04;29.04;99242.84;5051368;28;20500;-74
2021/07/11 09:59:09;;;;;;;8.50;6.35;;;;;;;33.09;29.01;99226.25;5051507;28;20541;-74
2021/07/11 10:01:36;;;;;;;9.40;7.05;;;;;;;33.58;28.97;99286.72;5051584;28;20033;-76
2021/07/11 10:04:03;;;;;;;9.57;7.57;;;;;;;33.45;29.15;99246.75;5050355;28;20036;-72
2021/07/11 10:06:30;;;;;;;7.22;6.35;;;;;;;33.67;28.94;99237.34;5051538;28;20087;-74
2021/07/11 10:08:56;;;;;;;7.82;6.38;;;;;;;34.18;28.24;99274.31;5051445;28;20078;-73
2021/07/11 10:11:22;;;;;;;8.02;6.97;;;;;;;34.04;28.43;99274.63;5051578;28;20429;-74
2021/07/11 10:13:48;;;;;;;9.23;6.75;;;;;;;33.73;28.59;99271.56;5049818;28;20025;-74
2021/07/11 10:16:14;;;;;;;8.15;6.20;;;;;;;33.24;29.53;99254.91;5051242;28;20089;-74
2021/07/11 10:18:40;;;;;;;8.95;7.25;;;;;;;33.01;29.10;99216.19;5051110;28;20025;-74
2021/07/11 10:21:07;;;;;;;8.25;6.47;;;;;;;33.36;28.95;99221.34;5051240;28;20025;-72
2021/07/11 10:23:37;;;;;;;8.30;6.45;;;;;;;33.26;28.16;99162.34;5051261;28;20053;-78
2021/07/11 10:26:04;;;;;;;8.55;7.75;;;;;;;33.76;28.68;99279.13;5051002;28;20557;-79
2021/07/11 10:28:32;;;;;;;8.15;6.72;;;;;;;33.60;28.30;99259.00;5051138;28;20025;-79
2021/07/11 10:30:58;;;;;;;10.48;6.80;;;;;;;34.01;28.00;99272.56;5052322;28;20029;-78
2021/07/11 10:33:25;;;;;;;7.15;6.25;;;;;;;34.39;28.12;99261.34;5053623;28;20409;-78
2021/07/11 10:35:50;;;;;;;9.75;6.97;;;;;;;34.74;27.23;99255.38;5055106;28;20597;-80
2021/07/11 10:38:39;;;;;;;14.05;7.70;;;;;;;34.91;26.71;99259.81;5053627;28;20099;-80
2021/07/11 10:41:22;;;;;;;13.35;7.72;;;;;;;34.98;26.03;99254.59;5054891;28;20032;-80
2021/07/11 10:44:04;;;;;;;8.00;7.30;;;;;;;35.15;25.31;99261.72;5053457;28;20024;-80
2021/07/11 10:46:36;;;;;;;11.50;9.07;;;;;;;35.27;24.72;99245.22;5054935;28;20025;-80
2021/07/11 10:49:20;;;;;;;12.73;10.20;;;;;;;35.53;24.59;99250.28;5055029;28;20021;-80
2021/07/11 10:51:59;;;;;;;11.07;8.18;;;;;;;35.30;25.15;99204.13;5055142;28;20102;-79
2021/07/11 10:54:26;;;;;;;8.70;7.80;;;;;;;35.65;24.67;99247.47;5054848;28;20025;-77
2021/07/11 10:56:53;;;;;;;8.70;7.57;;;;;;;35.38;25.22;99260.06;5054476;28;20025;-79
2021/07/11 10:59:26;;;;;;;9.05;6.97;;;;;;;35.51;24.76;99247.09;5054707;28;20447;-80
2021/07/11 11:01:52;;;;;;;13.25;8.18;;;;;;;35.65;23.93;99242.75;5054662;28;20158;-78
2021/07/11 11:04:17;;;;;;;10.00;7.93;;;;;;;35.66;23.54;99238.88;5054674;28;20158;-79
2021/07/11 11:06:42;;;;;;;11.18;9.10;;;;;;;35.94;23.47;99238.06;5054651;28;20500;-81
2021/07/11 11:09:08;;;;;;;11.40;7.90;;;;;;;35.84;24.03;99222.09;5054480;28;20024;-81
2021/07/11 11:11:33;;;;;;;8.52;7.68;;;;;;;35.95;23.66;99217.69;5054582;28;20021;-79
2021/07/11 11:14:06;;;;;;;10.95;7.70;;;;;;;36.24;23.46;99214.47;5054454;28;20021;-79
2021/07/11 11:16:45;;;;;;;14.35;8.75;;;;;;;36.48;23.48;99212.69;5054456;28;20493;-79
2021/07/11 11:19:15;;;;;;;9.18;7.15;;;;;;;36.01;23.68;99193.47;5054320;28;20025;-80
2021/07/11 11:21:41;;;;;;;8.80;7.67;;;;;;;35.54;23.84;99211.47;5054250;28;20417;-80
2021/07/11 11:24:06;;;;;;;10.48;7.95;;;;;;;35.10;24.19;99185.94;5054302;28;20036;-80
2021/07/11 11:26:32;;;;;;;7.50;6.55;;;;;;;35.14;24.30;99164.88;5054064;28;20021;-79
2021/07/11 11:28:59;;;;;;;7.95;6.00;;;;;;;35.66;24.06;99205.09;5054000;28;20025;-80
2021/07/11 11:31:31;;;;;;;12.95;11.75;;;;;;;36.00;23.36;99203.66;5054223;28;20174;-79
2021/07/11 11:34:00;;;;;;;10.75;9.48;;;;;;;36.45;22.52;99191.41;5054180;28;20055;-80